createdAt,value
2023-01-20T00:03:53.926Z,22.57
2023-01-20T00:06:21.882Z,24.90
2023-01-20T00:08:51.577Z,24.50
2023-01-20T00:11:21.024Z,24.10
2023-01-20T00:16:57.266Z,24.73
2023-01-20T00:22:27.505Z,23.63
2023-01-20T00:24:54.934Z,24.63
2023-01-20T00:27:23.682Z,25.23
2023-01-20T00:29:52.103Z,25.57
2023-01-20T00:35:22.578Z,24.17
2023-01-20T00:37:50.055Z,18.90
2023-01-20T00:40:17.964Z,21.10
2023-01-20T00:42:46.722Z,21.53
2023-01-20T00:48:16.060Z,22.00
2023-01-20T00:50:43.644Z,22.17
2023-01-20T00:53:11.163Z,21.77
2023-01-20T00:55:38.569Z,21.93
2023-01-20T01:00:56.128Z,19.30
2023-01-20T01:03:23.746Z,19.97
2023-01-20T01:05:51.241Z,20.80
2023-01-20T01:08:18.633Z,19.63
2023-01-20T01:13:38.387Z,20.37
2023-01-20T01:19:05.598Z,19.33
2023-01-20T01:21:33.121Z,18.97
2023-01-20T01:24:00.549Z,18.53
2023-01-20T01:26:28.117Z,19.70
2023-01-20T01:31:56.899Z,19.90
2023-01-20T01:34:24.583Z,20.03
2023-01-20T01:36:52.012Z,21.00
2023-01-20T01:39:19.462Z,20.67
2023-01-20T01:44:37.329Z,20.50
2023-01-20T01:47:06.399Z,21.43
2023-01-20T01:49:34.116Z,21.27
2023-01-20T01:52:03.506Z,21.37
2023-01-20T01:57:20.198Z,22.07
2023-01-20T01:59:47.722Z,22.20
2023-01-20T02:02:17.239Z,21.80
2023-01-20T02:04:50.993Z,23.07
2023-01-20T02:10:18.126Z,21.70
2023-01-20T02:12:49.448Z,20.97
2023-01-20T02:15:17.587Z,23.27
2023-01-20T02:17:55.020Z,22.97
2023-01-20T02:23:31.461Z,21.83
2023-01-20T02:29:34.162Z,21.43
2023-01-20T02:35:12.945Z,21.37
2023-01-20T02:37:48.056Z,20.40
2023-01-20T02:40:25.263Z,21.40
2023-01-20T02:43:00.831Z,23.97
2023-01-20T02:48:29.663Z,22.40
2023-01-20T02:51:02.266Z,21.47
2023-01-20T02:53:38.285Z,22.40
2023-01-20T02:56:06.108Z,21.37
2023-01-20T03:01:43.239Z,21.90
2023-01-20T03:07:16.246Z,22.40
2023-01-20T03:09:48.019Z,21.70
2023-01-20T03:12:18.688Z,22.07
2023-01-20T03:14:46.200Z,21.57
2023-01-20T03:20:13.243Z,21.77
2023-01-20T03:22:42.071Z,20.23
2023-01-20T03:25:10.773Z,19.97
2023-01-20T03:27:38.432Z,19.97
2023-01-20T03:32:54.538Z,20.83
2023-01-20T03:35:22.106Z,20.33
2023-01-20T03:37:51.303Z,19.73
2023-01-20T03:40:19.036Z,19.17
2023-01-20T03:45:47.487Z,18.97
2023-01-20T03:51:15.077Z,19.27
2023-01-20T03:53:46.872Z,16.80
2023-01-20T03:56:18.246Z,19.47
2023-01-20T03:58:48.614Z,19.23
2023-01-20T04:04:20.393Z,19.03
2023-01-20T04:06:49.190Z,18.03
2023-01-20T04:09:21.363Z,18.90
2023-01-20T04:11:48.792Z,19.70
2023-01-20T04:17:18.535Z,19.17
2023-01-20T04:19:45.976Z,18.60
2023-01-20T04:22:16.880Z,21.23
2023-01-20T04:24:50.642Z,19.97
2023-01-20T04:30:22.192Z,19.47
2023-01-20T04:35:52.518Z,19.13
2023-01-20T04:38:20.067Z,19.63
2023-01-20T04:40:50.193Z,21.27
2023-01-20T04:43:18.524Z,20.57
2023-01-20T04:48:48.613Z,19.53
2023-01-20T04:51:16.108Z,18.67
2023-01-20T04:53:43.546Z,18.47
2023-01-20T04:56:16.274Z,17.87
2023-01-20T05:01:32.789Z,19.60
2023-01-20T05:04:00.270Z,17.77
2023-01-20T05:06:27.688Z,18.73
2023-01-20T05:08:55.117Z,18.67
2023-01-20T05:14:13.268Z,18.50
2023-01-20T05:16:40.807Z,18.80
2023-01-20T05:19:08.261Z,16.80
2023-01-20T05:21:35.689Z,17.80
2023-01-20T05:27:01.641Z,17.20
2023-01-20T05:29:30.414Z,17.97
2023-01-20T05:31:57.861Z,18.03
2023-01-20T05:34:25.440Z,17.97
2023-01-20T05:39:41.510Z,16.93
2023-01-20T05:42:08.929Z,18.50
2023-01-20T05:44:37.720Z,16.20
2023-01-20T05:47:05.317Z,19.60
2023-01-20T05:52:29.013Z,20.13
2023-01-20T05:54:56.437Z,20.03
2023-01-20T05:57:25.141Z,18.10
2023-01-20T05:59:55.519Z,19.77
2023-01-20T06:05:30.389Z,19.17
2023-01-20T06:11:00.752Z,19.20
2023-01-20T06:13:28.246Z,20.03
2023-01-20T06:18:48.476Z,21.30
2023-01-20T06:24:11.092Z,20.43
2023-01-20T06:26:38.492Z,19.33
2023-01-20T06:29:05.963Z,18.97
2023-01-20T06:31:33.437Z,19.07
2023-01-20T06:36:50.954Z,19.80
2023-01-20T06:39:18.375Z,17.90
2023-01-20T06:41:46.310Z,18.63
2023-01-20T06:44:13.873Z,18.97
2023-01-20T06:49:29.978Z,17.83
2023-01-20T06:51:58.729Z,20.23
2023-01-20T06:54:27.056Z,19.97
2023-01-20T06:56:54.508Z,19.70
2023-01-20T07:02:10.944Z,19.37
2023-01-20T07:04:38.493Z,19.67
2023-01-20T07:07:07.259Z,21.30
2023-01-20T07:09:34.682Z,20.47
2023-01-20T07:14:55.151Z,20.47
2023-01-20T07:20:21.550Z,20.17
2023-01-20T07:22:50.486Z,21.43
2023-01-20T07:25:17.911Z,20.53
2023-01-20T07:27:45.345Z,19.23
2023-01-20T07:33:05.442Z,21.83
2023-01-20T07:35:32.985Z,21.20
2023-01-20T07:38:01.771Z,21.77
2023-01-20T07:40:29.167Z,21.53
2023-01-20T07:45:45.622Z,21.00
2023-01-20T07:48:13.043Z,21.57
2023-01-20T07:50:40.469Z,20.67
2023-01-20T07:53:09.255Z,20.23
2023-01-20T07:58:39.665Z,21.17
2023-01-20T08:01:08.914Z,20.80
2023-01-20T08:03:36.474Z,21.60
2023-01-20T08:06:04.454Z,20.47
2023-01-20T08:11:35.889Z,19.87
2023-01-20T08:14:03.339Z,20.10
2023-01-20T08:16:30.784Z,21.87
2023-01-20T08:18:58.502Z,18.87
2023-01-20T08:24:28.573Z,18.57
2023-01-20T08:26:57.356Z,19.67
2023-01-20T08:29:24.818Z,19.73
2023-01-20T08:31:52.361Z,18.27
2023-01-20T08:37:17.618Z,18.90
2023-01-20T08:39:45.032Z,18.57
2023-01-20T08:42:13.844Z,18.50
2023-01-20T08:44:41.321Z,18.13
2023-01-20T08:50:00.122Z,16.30
2023-01-20T08:55:27.538Z,16.57
2023-01-20T08:57:56.320Z,15.67
2023-01-20T09:00:24.514Z,16.83
2023-01-20T09:02:52.033Z,16.43
2023-01-20T09:08:19.701Z,16.47
2023-01-20T09:10:47.562Z,16.93
2023-01-20T09:13:16.335Z,16.60
2023-01-20T09:15:43.827Z,16.33
2023-01-20T09:21:13.587Z,16.87
2023-01-20T09:23:42.679Z,16.80
2023-01-20T09:26:10.603Z,17.13
2023-01-20T09:28:39.327Z,16.40
2023-01-20T09:34:09.575Z,16.67
2023-01-20T09:36:37.021Z,17.20
2023-01-20T09:39:22.314Z,17.17
2023-01-20T09:42:08.027Z,16.43
2023-01-20T09:44:45.817Z,16.63
2023-01-20T09:47:28.596Z,16.87
2023-01-20T09:53:06.487Z,16.27
2023-01-20T09:55:41.138Z,15.33
2023-01-20T09:58:14.971Z,15.77
2023-01-20T10:00:47.809Z,16.63
2023-01-20T10:06:02.897Z,16.23
2023-01-20T10:11:32.204Z,16.43
2023-01-20T10:14:05.251Z,16.67
2023-01-20T10:16:38.842Z,16.80
2023-01-20T10:19:11.328Z,16.07
2023-01-20T10:24:44.978Z,16.77
2023-01-20T10:27:12.463Z,16.17
2023-01-20T10:29:42.327Z,16.60
2023-01-20T10:32:17.065Z,16.23
2023-01-20T10:37:44.109Z,14.50
2023-01-20T10:43:14.295Z,14.60
2023-01-20T10:45:53.440Z,14.83
2023-01-20T10:48:30.300Z,15.77
2023-01-20T10:50:59.911Z,14.10
2023-01-20T10:56:34.587Z,13.43
2023-01-20T10:59:05.180Z,15.53
2023-01-20T11:01:32.708Z,14.53
2023-01-20T11:04:01.484Z,14.30
2023-01-20T11:09:32.626Z,14.57
2023-01-20T11:15:18.855Z,13.97
2023-01-20T11:17:47.449Z,13.27
2023-01-20T11:20:21.200Z,13.57
2023-01-20T11:22:50.181Z,13.80
2023-01-20T11:28:18.680Z,14.07
2023-01-20T11:30:51.978Z,13.83
2023-01-20T11:33:22.078Z,14.47
2023-01-20T11:36:01.592Z,13.77
2023-01-20T11:41:06.387Z,14.17
2023-01-20T11:46:37.198Z,14.27
2023-01-20T11:49:15.751Z,14.13
2023-01-20T11:51:51.464Z,13.80
2023-01-20T11:54:21.109Z,14.87
2023-01-20T11:59:49.465Z,13.33
2023-01-20T12:02:24.430Z,14.50
2023-01-20T12:05:04.250Z,15.47
2023-01-20T12:07:36.262Z,14.60
2023-01-20T12:12:50.765Z,14.50
2023-01-20T12:18:20.105Z,15.13
2023-01-20T12:20:55.700Z,15.13
2023-01-20T12:23:35.284Z,14.63
2023-01-20T12:26:04.491Z,14.43
2023-01-20T12:31:23.794Z,14.43
2023-01-20T12:33:52.664Z,15.43
2023-01-20T12:36:35.960Z,14.97
2023-01-20T12:39:21.573Z,13.23
2023-01-20T12:44:33.223Z,14.57
2023-01-20T12:50:19.663Z,16.10
2023-01-20T12:52:55.845Z,14.33
2023-01-20T12:55:31.944Z,14.60
2023-01-20T12:58:04.933Z,14.43
2023-01-20T13:03:53.773Z,13.37
2023-01-20T13:09:42.000Z,12.13
2023-01-20T13:15:23.236Z,13.10
2023-01-20T13:18:08.485Z,12.87
2023-01-20T13:20:40.471Z,12.87
2023-01-20T13:23:10.776Z,13.93
2023-01-20T13:28:56.600Z,11.90
2023-01-20T13:34:36.533Z,12.80
2023-01-20T13:37:24.719Z,12.70
2023-01-20T13:39:54.266Z,12.53
2023-01-20T13:42:29.955Z,13.07
2023-01-20T13:47:53.380Z,13.27
2023-01-20T13:53:29.247Z,14.73
2023-01-20T13:56:25.554Z,13.30
2023-01-20T13:58:53.230Z,13.57
2023-01-20T14:01:20.704Z,14.60
2023-01-20T14:06:45.994Z,13.80
2023-01-20T14:09:20.198Z,13.03
2023-01-20T14:11:50.419Z,12.87
2023-01-20T14:14:20.261Z,12.90
2023-01-20T14:17:08.251Z,13.33
2023-01-20T14:19:36.185Z,13.07
2023-01-20T14:25:03.456Z,13.60
2023-01-20T14:27:33.495Z,13.37
2023-01-20T14:30:16.067Z,14.00
2023-01-20T14:32:43.779Z,12.30
2023-01-20T14:38:19.004Z,11.70
2023-01-20T14:40:49.949Z,11.90
2023-01-20T14:43:19.417Z,11.73
2023-01-20T14:45:49.411Z,12.00
2023-01-20T14:51:15.422Z,11.40
2023-01-20T14:56:48.498Z,15.90
2023-01-20T14:59:19.824Z,18.13
2023-01-20T15:01:52.279Z,13.10
2023-01-20T15:04:19.936Z,13.60
2023-01-20T15:09:36.886Z,14.37
2023-01-20T15:12:42.451Z,12.90
2023-01-20T15:15:28.685Z,12.40
2023-01-20T15:18:16.758Z,13.43
2023-01-20T15:20:46.421Z,12.67
2023-01-20T15:23:22.871Z,13.60
2023-01-20T15:28:49.920Z,13.87
2023-01-20T15:31:18.104Z,13.87
2023-01-20T15:33:45.700Z,15.17
2023-01-20T15:36:21.710Z,13.80
2023-01-20T15:41:57.478Z,14.83
2023-01-20T15:47:30.836Z,14.07
2023-01-20T15:49:58.396Z,14.23
2023-01-20T15:52:25.930Z,13.90
2023-01-20T15:54:53.348Z,14.40
2023-01-20T16:00:18.578Z,14.67
2023-01-20T16:02:46.260Z,13.73
2023-01-20T16:05:17.189Z,12.60
2023-01-20T16:07:46.890Z,13.53
2023-01-20T16:13:16.890Z,14.63
2023-01-20T16:15:45.640Z,12.57
2023-01-20T16:18:15.301Z,13.77
2023-01-20T16:20:43.877Z,13.00
2023-01-20T16:26:20.003Z,14.37
2023-01-20T16:28:47.465Z,16.00
2023-01-20T16:31:16.318Z,15.03
2023-01-20T16:33:44.234Z,14.93
2023-01-20T16:39:01.595Z,15.67
2023-01-20T16:44:29.580Z,14.47
2023-01-20T16:47:00.054Z,14.67
2023-01-20T16:49:27.481Z,14.77
2023-01-20T16:51:54.899Z,14.47
2023-01-20T16:57:11.334Z,15.93
2023-01-20T16:59:38.773Z,14.67
2023-01-20T17:02:07.565Z,15.53
2023-01-20T17:04:35.385Z,14.87
2023-01-20T17:10:06.186Z,15.40
2023-01-20T17:12:33.583Z,14.67
2023-01-20T17:15:01.046Z,13.83
2023-01-20T17:17:29.829Z,13.67
2023-01-20T17:22:59.570Z,14.07
2023-01-20T17:25:26.995Z,14.50
2023-01-20T17:27:54.453Z,15.13
2023-01-20T17:30:24.527Z,16.53
2023-01-20T17:35:57.405Z,15.00
2023-01-20T17:38:24.931Z,15.00
2023-01-20T17:40:52.447Z,14.60
2023-01-20T17:43:20.009Z,15.47
2023-01-20T17:48:45.418Z,15.70
2023-01-20T17:54:12.548Z,14.83
2023-01-20T17:56:40.004Z,15.30
2023-01-20T17:59:07.429Z,15.37
2023-01-20T18:01:34.949Z,15.87
2023-01-20T18:06:54.919Z,16.93
2023-01-20T18:09:22.373Z,16.77
2023-01-20T18:11:49.800Z,16.90
2023-01-20T18:14:17.313Z,16.87
2023-01-20T18:19:35.494Z,17.53
2023-01-20T18:22:06.864Z,17.87
2023-01-20T18:24:34.362Z,19.10
2023-01-20T18:27:01.840Z,18.03
2023-01-20T18:32:31.605Z,17.90
2023-01-20T18:34:59.006Z,18.13
2023-01-20T18:39:56.672Z,17.27
2023-01-20T18:45:12.568Z,17.90
2023-01-20T18:47:39.969Z,17.60
2023-01-20T18:50:08.009Z,18.60
2023-01-20T18:52:36.779Z,18.03
2023-01-20T18:58:08.432Z,19.17
2023-01-20T19:00:36.094Z,18.47
2023-01-20T19:03:03.735Z,18.07
2023-01-20T19:05:32.396Z,20.50
2023-01-20T19:11:05.526Z,18.73
2023-01-20T19:13:33.481Z,20.17
2023-01-20T19:16:01.028Z,18.80
2023-01-20T19:18:28.748Z,21.10
2023-01-20T19:23:49.481Z,18.50
2023-01-20T19:29:19.032Z,19.53
2023-01-20T19:31:46.576Z,20.83
2023-01-20T19:34:14.093Z,21.07
2023-01-20T19:36:42.797Z,20.93
2023-01-20T19:42:10.826Z,20.33
2023-01-20T19:44:38.250Z,21.73
2023-01-20T19:47:05.771Z,22.57
2023-01-20T19:49:33.287Z,20.90
2023-01-20T19:55:03.523Z,20.43
2023-01-20T19:57:32.285Z,19.77
2023-01-20T19:59:59.698Z,20.27
2023-01-20T20:02:28.097Z,19.93
2023-01-20T20:07:44.521Z,22.00
2023-01-20T20:10:12.059Z,23.77
2023-01-20T20:12:41.261Z,20.90
2023-01-20T20:15:10.798Z,21.70
2023-01-20T20:20:36.738Z,20.17
2023-01-20T20:23:04.148Z,19.87
2023-01-20T20:25:31.690Z,19.23
2023-01-20T20:27:59.152Z,20.07
2023-01-20T20:33:17.566Z,20.10
2023-01-20T20:35:45.082Z,20.73
2023-01-20T20:38:12.541Z,23.10
2023-01-20T20:40:39.980Z,20.63
2023-01-20T20:46:07.389Z,21.20
2023-01-20T20:48:37.379Z,22.17
2023-01-20T20:51:08.974Z,21.27
2023-01-20T20:53:36.588Z,23.47
2023-01-20T20:59:01.835Z,20.57
2023-01-20T21:04:43.922Z,20.03
2023-01-20T21:07:11.886Z,20.13
2023-01-20T21:09:40.518Z,21.00
2023-01-20T21:12:08.481Z,21.33
2023-01-20T21:17:34.524Z,20.63
2023-01-20T21:20:03.760Z,19.63
2023-01-20T21:22:31.256Z,19.87
2023-01-20T21:24:58.702Z,20.07
2023-01-20T21:30:28.528Z,18.30
2023-01-20T21:32:56.019Z,20.23
2023-01-20T21:35:24.874Z,20.17
2023-01-20T21:37:52.262Z,20.13
2023-01-20T21:43:32.399Z,19.00
2023-01-20T21:49:16.136Z,18.47
2023-01-20T21:52:02.683Z,18.03
2023-01-20T21:54:31.853Z,19.37
2023-01-20T21:56:59.826Z,18.33
2023-01-20T22:02:18.072Z,17.70
2023-01-20T22:07:48.256Z,18.67
2023-01-20T22:10:16.082Z,19.07
2023-01-20T22:12:43.624Z,18.30
2023-01-20T22:15:11.825Z,18.40
2023-01-20T22:20:29.295Z,19.93
2023-01-20T22:22:58.027Z,19.50
2023-01-20T22:25:25.421Z,19.53
2023-01-20T22:27:52.810Z,19.60
2023-01-20T22:33:08.576Z,19.50
2023-01-20T22:35:36.007Z,19.20
2023-01-20T22:38:04.873Z,17.20
2023-01-20T22:40:34.184Z,17.23
2023-01-20T22:48:33.353Z,17.53
2023-01-20T22:51:03.298Z,17.47
2023-01-20T22:53:32.407Z,17.27
2023-01-20T22:58:59.331Z,17.73
2023-01-20T23:01:28.696Z,19.03
2023-01-20T23:03:57.211Z,18.50
2023-01-20T23:06:25.499Z,21.37
2023-01-20T23:11:52.895Z,15.67
2023-01-20T23:17:30.083Z,18.50
2023-01-20T23:19:58.364Z,18.07
2023-01-20T23:22:25.827Z,16.60
2023-01-20T23:24:53.261Z,17.57
2023-01-20T23:30:12.073Z,17.10
2023-01-20T23:32:39.598Z,17.10
2023-01-20T23:35:07.535Z,16.20
2023-01-20T23:37:34.969Z,19.70
2023-01-20T23:43:00.523Z,16.27
2023-01-20T23:45:29.406Z,17.90
2023-01-20T23:47:57.029Z,17.50
2023-01-20T23:50:24.461Z,16.70
2023-01-20T23:55:50.490Z,18.57
2023-01-20T23:58:17.970Z,20.03
